Time;durP1;ratioP1;P1;durP2;ratioP2;P2;SDS_P1;SDS_P2;PMS_P1;PMS_P2;Temp;Humidity;BMP_temperature;BMP_pressure;BME280_temperature;BME280_humidity;BME280_pressure;Samples;Min_cycle;Max_cycle;Signal;HPM_P1;HPM_P2
2023/07/26 10:40:40;;;;;;;15.70;7.40;;;;;;;30.77;78.40;99532.05;104338;1286;599873;-68
2023/07/26 10:43:40;;;;;;;12.90;7.50;;;;;;;30.74;78.17;99535.18;107037;1251;57360;-68
2023/07/26 10:46:13;;;;;;;15.80;7.30;;;;;;;30.60;78.46;99529.74;106820;1251;59088;-66
2023/07/26 10:48:43;;;;;;;14.30;7.50;;;;;;;31.03;76.90;99528.45;106662;1261;60512;-67
2023/07/26 10:51:28;;;;;;;12.20;7.00;;;;;;;30.91;76.11;99518.60;106826;1251;61707;-68
2023/07/26 10:53:58;;;;;;;18.10;7.50;;;;;;;30.52;77.95;99521.36;106674;1249;255544;-67
2023/07/26 10:56:32;;;;;;;13.90;7.30;;;;;;;30.37;79.17;99520.54;106867;1259;62871;-67
2023/07/26 10:59:05;;;;;;;14.10;7.10;;;;;;;30.43;79.23;99516.98;106844;1248;58875;-67
2023/07/26 11:01:40;;;;;;;14.90;7.30;;;;;;;30.81;78.62;99518.41;106847;1249;57298;-67
2023/07/26 11:04:13;;;;;;;13.80;7.80;;;;;;;30.95;78.36;99519.20;106892;1259;62403;-67
2023/07/26 11:06:48;;;;;;;14.30;7.00;;;;;;;31.31;76.07;99523.05;106883;1255;72580;-67
2023/07/26 11:37:59;;;;;;;10.30;7.10;;;;;;;31.65;73.93;99440.79;104095;1285;601201;-68
2023/07/26 11:40:30;;;;;;;18.20;7.90;;;;;;;31.77;73.72;99445.80;106158;1257;60466;-66
2023/07/26 11:42:59;;;;;;;17.40;8.00;;;;;;;31.89;73.80;99441.13;106905;1251;57671;-67
2023/07/26 11:45:28;;;;;;;10.50;6.90;;;;;;;32.35;72.39;99428.59;107062;1248;60815;-68
2023/07/26 11:47:58;;;;;;;16.30;7.10;;;;;;;33.17;69.19;99417.71;107074;1247;63843;-69
2023/07/26 11:55:53;;;;;;;12.20;7.10;;;;;;;33.32;67.76;99406.44;104261;1283;599131;-68
2023/07/26 11:58:22;;;;;;;14.60;7.80;;;;;;;33.56;66.15;99409.17;106845;1252;59674;-68
2023/07/26 12:03:44;;;;;;;12.70;7.80;;;;;;;33.37;65.96;99392.77;104009;1284;601808;-68
2023/07/26 12:06:14;;;;;;;11.20;7.80;;;;;;;32.78;68.75;99400.17;106240;1258;59479;-68
2023/07/26 12:08:43;;;;;;;13.50;7.40;;;;;;;32.77;68.07;99408.25;106649;1254;57433;-68
2023/07/26 12:12:26;;;;;;;14.20;8.70;;;;;;;32.20;71.13;99426.66;104582;1277;601045;-67
2023/07/26 12:14:56;;;;;;;11.80;7.50;;;;;;;31.68;72.41;99430.02;106226;1257;60846;-68
2023/07/26 12:17:26;;;;;;;12.50;7.70;;;;;;;31.40;74.17;99426.08;106056;1258;59171;-66
2023/07/26 12:20:03;;;;;;;13.20;7.60;;;;;;;31.57;74.00;99428.26;106379;1255;61329;-68
2023/07/26 12:22:50;;;;;;;17.70;8.20;;;;;;;31.68;73.52;99420.86;106416;1251;70689;-67
2023/07/26 12:25:20;;;;;;;17.00;7.90;;;;;;;31.68;73.52;99410.70;106581;1249;486187;-67
2023/07/26 12:27:52;;;;;;;12.70;7.70;;;;;;;31.58;73.94;99400.31;107119;1246;62809;-68
2023/07/26 12:30:22;;;;;;;13.80;8.90;;;;;;;31.68;74.00;99394.87;106982;1248;62485;-68
2023/07/26 12:33:09;;;;;;;12.80;7.50;;;;;;;31.48;74.22;99402.36;107195;1244;59155;-69
2023/07/26 12:35:44;;;;;;;12.80;7.40;;;;;;;31.51;74.51;99416.10;107046;1258;60804;-68
2023/07/26 12:38:19;;;;;;;13.30;8.50;;;;;;;31.34;76.17;99422.14;107062;1254;61588;-68
2023/07/26 12:40:50;;;;;;;18.20;8.80;;;;;;;31.34;75.66;99429.86;107044;1248;59304;-68
2023/07/26 12:43:30;;;;;;;13.70;8.40;;;;;;;30.96;76.43;99437.94;106969;1246;73014;-68
2023/07/26 12:46:00;;;;;;;17.50;8.20;;;;;;;30.92;76.20;99453.54;106898;1245;61002;-68
2023/07/26 12:48:31;;;;;;;16.40;8.30;;;;;;;30.83;76.26;99464.25;106953;1246;62057;-68
2023/07/26 12:51:00;;;;;;;15.10;7.90;;;;;;;30.49;77.57;99466.50;107130;1246;73272;-69
2023/07/26 12:53:29;;;;;;;11.60;8.10;;;;;;;30.45;76.67;99471.63;107051;1247;61151;-67
2023/07/26 12:55:58;;;;;;;16.60;8.10;;;;;;;30.13;78.44;99477.21;107084;1253;59770;-68
2023/07/26 12:58:28;;;;;;;12.50;8.10;;;;;;;29.85;80.90;99476.27;107098;1249;65074;-67
2023/07/26 13:00:57;;;;;;;14.10;8.30;;;;;;;29.69;81.15;99473.71;107030;1245;61038;-69
2023/07/26 13:03:26;;;;;;;15.50;8.80;;;;;;;29.66;80.57;99477.53;107117;1245;59116;-68
2023/07/26 13:05:56;;;;;;;10.30;8.10;;;;;;;29.52;81.60;99488.94;106988;1244;72014;-69
2023/07/26 13:08:26;;;;;;;16.20;9.30;;;;;;;29.38;82.72;99499.69;107013;1244;72710;-69
2023/07/26 13:10:55;;;;;;;15.10;8.80;;;;;;;29.21;85.43;99503.66;107004;1248;61275;-68
2023/07/26 13:13:26;;;;;;;17.70;8.30;;;;;;;29.05;84.99;99509.02;106923;1258;73693;-67
2023/07/26 13:15:55;;;;;;;19.00;8.80;;;;;;;29.09;84.32;99501.73;107012;1247;61178;-68
2023/07/26 13:18:24;;;;;;;15.10;9.00;;;;;;;28.95;85.33;99489.18;106869;1254;58958;-67
2023/07/26 13:20:54;;;;;;;14.50;8.60;;;;;;;28.83;85.75;99482.52;106879;1244;71729;-68
2023/07/26 13:23:23;;;;;;;14.40;8.80;;;;;;;28.72;86.63;99480.31;106940;1245;63007;-67
2023/07/26 13:25:52;;;;;;;12.70;8.20;;;;;;;28.61;86.80;99478.80;106898;1244;70038;-67
2023/07/26 13:28:21;;;;;;;14.00;8.20;;;;;;;28.43;89.26;99484.31;106942;1246;73907;-67
2023/07/26 13:30:50;;;;;;;18.10;7.90;;;;;;;28.37;88.50;99485.23;106984;1246;59003;-68
2023/07/26 13:33:21;;;;;;;15.80;7.60;;;;;;;28.28;88.30;99477.09;106913;1244;57804;-67
2023/07/26 13:35:53;;;;;;;16.10;8.60;;;;;;;28.14;89.02;99469.71;106893;1258;61842;-66
2023/07/26 13:38:22;;;;;;;13.20;7.30;;;;;;;27.91;91.49;99450.95;106869;1247;61420;-65
2023/07/26 13:40:52;;;;;;;14.20;7.50;;;;;;;27.77;92.44;99444.38;106910;1244;70083;-70
2023/07/26 13:43:21;;;;;;;16.20;7.70;;;;;;;27.62;92.93;99453.50;106696;1251;62593;-74
2023/07/26 13:45:51;;;;;;;18.50;7.50;;;;;;;27.57;93.11;99480.27;106828;1245;59051;-71
2023/07/26 13:48:20;;;;;;;15.40;6.80;;;;;;;27.50;92.91;99499.21;106853;1245;59076;-70
2023/07/26 13:50:49;;;;;;;14.70;6.10;;;;;;;27.45;92.16;99494.07;106937;1254;62345;-71
2023/07/26 13:53:18;;;;;;;13.90;6.60;;;;;;;27.35;92.00;99480.92;106805;1244;71817;-73
2023/07/26 13:55:48;;;;;;;11.10;5.70;;;;;;;27.27;91.83;99464.31;106902;1245;70596;-75
2023/07/26 13:58:17;;;;;;;11.10;5.70;;;;;;;27.25;91.96;99468.46;106869;1249;63527;-74
2023/07/26 14:00:47;;;;;;;14.30;5.90;;;;;;;27.11;93.40;99486.07;107088;1244;58991;-71
2023/07/26 14:03:16;;;;;;;11.90;5.60;;;;;;;26.85;96.18;99510.24;107049;1252;60518;-74
2023/07/26 14:05:45;;;;;;;15.10;6.40;;;;;;;26.64;98.46;99517.59;107271;1254;64779;-72
2023/07/26 14:08:14;;;;;;;16.30;6.80;;;;;;;26.19;100.00;99498.65;107270;1246;62611;-73
2023/07/26 14:10:43;;;;;;;10.90;6.30;;;;;;;25.58;100.00;99507.91;107257;1245;71105;-72
2023/07/26 14:13:12;;;;;;;15.50;6.50;;;;;;;24.92;100.00;99553.02;107236;1244;72296;-72
2023/07/26 14:15:42;;;;;;;12.00;6.00;;;;;;;24.04;100.00;99552.85;107548;1247;58956;-72
2023/07/26 14:18:10;;;;;;;12.50;5.70;;;;;;;23.50;100.00;99519.52;107409;1244;61217;-73
2023/07/26 14:20:39;;;;;;;8.60;5.00;;;;;;;23.08;100.00;99501.80;107368;1244;63815;-72
2023/07/26 14:23:08;;;;;;;9.80;5.50;;;;;;;22.79;100.00;99503.62;107391;1244;60692;-73
2023/07/26 14:25:37;;;;;;;10.30;7.00;;;;;;;22.65;100.00;99517.63;107343;1241;70800;-74
2023/07/26 14:34:26;;;;;;;13.80;6.00;;;;;;;23.24;100.00;99499.61;103694;1286;601495;-72
2023/07/26 14:36:54;;;;;;;12.50;5.70;;;;;;;23.44;100.00;99504.55;106327;1264;63131;-72
2023/07/26 14:39:23;;;;;;;8.60;5.20;;;;;;;23.69;100.00;99516.98;106279;1258;60927;-72
2023/07/26 14:41:52;;;;;;;8.50;5.80;;;;;;;23.85;100.00;99524.15;106261;1257;60983;-72
2023/07/26 14:44:21;;;;;;;16.50;9.20;;;;;;;24.02;100.00;99518.49;106327;1257;60938;-71
2023/07/26 14:46:50;;;;;;;13.50;8.40;;;;;;;24.36;100.00;99500.18;105927;1255;70436;-72
2023/07/26 14:49:19;;;;;;;17.60;8.60;;;;;;;24.43;100.00;99485.73;106734;1250;63424;-71
2023/07/26 14:51:48;;;;;;;15.70;8.30;;;;;;;24.62;100.00;99465.98;106882;1256;62508;-72
2023/07/26 14:54:18;;;;;;;15.80;8.80;;;;;;;24.77;100.00;99461.94;106943;1249;58981;-73
2023/07/26 14:56:47;;;;;;;14.60;8.30;;;;;;;24.90;100.00;99458.13;106847;1249;69443;-73
2023/07/26 14:59:36;;;;;;;14.50;8.20;;;;;;;24.73;100.00;99466.34;106849;1254;72167;-73
2023/07/26 15:02:05;;;;;;;13.30;8.40;;;;;;;24.87;100.00;99477.50;106887;1251;62319;-73
2023/07/26 15:04:34;;;;;;;11.20;8.20;;;;;;;25.58;100.00;99491.00;106922;1258;64237;-73
2023/07/26 15:07:04;;;;;;;13.90;7.60;;;;;;;26.15;100.00;99491.94;106872;1258;59020;-71
2023/07/26 15:09:32;;;;;;;11.10;6.40;;;;;;;26.34;100.00;99488.69;106846;1250;60531;-71
2023/07/26 15:12:01;;;;;;;12.50;6.80;;;;;;;26.00;100.00;99486.65;106769;1248;63221;-71
2023/07/26 15:14:30;;;;;;;12.70;6.80;;;;;;;25.99;100.00;99480.49;106791;1255;61493;-73
2023/07/26 15:16:59;;;;;;;14.20;7.00;;;;;;;26.04;100.00;99478.20;107069;1257;59007;-74
2023/07/26 15:19:28;;;;;;;8.40;5.10;;;;;;;26.34;100.00;99477.86;107184;1248;65040;-73
2023/07/26 15:21:56;;;;;;;13.20;6.30;;;;;;;26.52;100.00;99492.84;107122;1257;63350;-74
2023/07/26 15:24:26;;;;;;;6.60;4.70;;;;;;;26.19;100.00;99524.07;107150;1254;57357;-72
2023/07/26 15:26:54;;;;;;;8.70;5.80;;;;;;;26.10;100.00;99554.70;107059;1251;65257;-73
2023/07/26 15:29:24;;;;;;;10.60;5.40;;;;;;;25.92;100.00;99572.61;107304;1251;61305;-74
2023/07/26 15:31:53;;;;;;;10.80;5.30;;;;;;;25.83;100.00;99587.40;107189;1248;69217;-82
2023/07/26 15:34:22;;;;;;;9.60;5.10;;;;;;;25.99;100.00;99590.35;107255;1248;73780;-72
2023/07/26 15:36:51;;;;;;;8.30;4.80;;;;;;;25.94;100.00;99596.35;106898;1250;63598;-72
2023/07/26 15:39:20;;;;;;;8.90;4.10;;;;;;;25.77;100.00;99588.67;107088;1248;58114;-72
2023/07/26 15:41:49;;;;;;;5.60;3.50;;;;;;;25.38;100.00;99573.77;107156;1248;62032;-72
2023/07/26 15:44:35;;;;;;;8.40;4.70;;;;;;;25.16;100.00;99568.56;107113;1247;71858;-74
2023/07/26 15:47:05;;;;;;;6.10;4.30;;;;;;;25.05;100.00;99569.53;107280;1247;60447;-72
2023/07/26 15:49:37;;;;;;;6.40;4.20;;;;;;;24.86;100.00;99572.98;107278;1257;62493;-72
2023/07/26 15:52:06;;;;;;;6.50;4.70;;;;;;;24.68;100.00;99576.02;107082;1256;58931;-73
2023/07/26 15:54:35;;;;;;;6.20;4.80;;;;;;;24.41;100.00;99580.78;107061;1245;60825;-73
2023/07/26 15:57:05;;;;;;;6.20;5.00;;;;;;;24.35;100.00;99576.94;107228;1247;72964;-71
2023/07/26 15:59:34;;;;;;;9.50;5.70;;;;;;;24.13;100.00;99573.52;107043;1244;72695;-71
2023/07/26 16:02:06;;;;;;;7.00;5.50;;;;;;;23.90;100.00;99583.60;107108;1248;69257;-70
2023/07/26 16:04:34;;;;;;;6.00;5.10;;;;;;;23.84;100.00;99586.18;107089;1257;74427;-71
2023/07/26 16:07:04;;;;;;;7.80;5.70;;;;;;;23.58;100.00;99591.10;107124;1247;62980;-71
2023/07/26 16:09:34;;;;;;;8.50;6.30;;;;;;;23.33;100.00;99593.39;107145;1244;61908;-75
2023/07/26 16:12:03;;;;;;;10.50;5.70;;;;;;;23.27;100.00;99581.05;107239;1245;73075;-75
2023/07/26 16:14:36;;;;;;;8.30;6.00;;;;;;;23.15;100.00;99562.61;107076;1247;71794;-70
2023/07/26 16:17:08;;;;;;;7.50;6.00;;;;;;;22.98;100.00;99545.33;107388;1248;59521;-79
2023/07/26 16:19:41;;;;;;;9.60;6.70;;;;;;;22.77;100.00;99533.59;107332;1248;62632;-76
2023/07/26 16:22:12;;;;;;;7.90;6.10;;;;;;;22.70;100.00;99528.73;107082;1248;62127;-72
2023/07/26 16:24:41;;;;;;;7.90;6.00;;;;;;;22.68;100.00;99523.54;107107;1245;60331;-75
2023/07/26 16:27:11;;;;;;;8.60;6.40;;;;;;;22.58;100.00;99517.55;107138;1248;73004;-76
2023/07/26 16:29:39;;;;;;;7.20;6.50;;;;;;;22.44;100.00;99518.86;107225;1257;71591;-76
2023/07/26 16:32:09;;;;;;;8.20;6.50;;;;;;;22.36;100.00;99513.89;107323;1250;70691;-78
2023/07/26 16:34:38;;;;;;;9.70;6.70;;;;;;;22.32;100.00;99505.85;107296;1244;73478;-72
2023/07/26 16:37:07;;;;;;;8.90;7.20;;;;;;;22.26;100.00;99519.69;107281;1245;59055;-74
2023/07/26 16:39:38;;;;;;;8.40;7.40;;;;;;;22.19;100.00;99528.87;107325;1244;61143;-77
2023/07/26 16:42:07;;;;;;;8.90;6.80;;;;;;;22.17;100.00;99537.23;107268;1248;62661;-74
2023/07/26 16:44:36;;;;;;;9.70;7.10;;;;;;;22.10;100.00;99552.89;107287;1254;61625;-82
2023/07/26 16:47:05;;;;;;;8.40;6.30;;;;;;;22.11;100.00;99551.33;107306;1245;69609;-74
2023/07/26 16:49:37;;;;;;;8.50;7.10;;;;;;;22.10;100.00;99555.38;107326;1247;63409;-70
2023/07/26 16:52:07;;;;;;;8.30;6.50;;;;;;;22.09;100.00;99566.51;107071;1245;62699;-71
2023/07/26 16:54:36;;;;;;;8.50;7.30;;;;;;;22.05;100.00;99562.52;107106;1245;61800;-69
2023/07/26 16:57:06;;;;;;;7.30;6.60;;;;;;;22.10;100.00;99564.34;107096;1244;62080;-82
2023/07/26 16:59:35;;;;;;;7.70;6.80;;;;;;;22.10;100.00;99562.13;107450;1247;61967;-83
2023/07/26 17:02:04;;;;;;;8.40;7.50;;;;;;;22.14;100.00;99563.23;107492;1254;69526;-79
2023/07/26 17:04:33;;;;;;;9.00;7.60;;;;;;;22.19;100.00;99557.02;107358;1252;74119;-82
2023/07/26 17:07:01;;;;;;;8.70;6.80;;;;;;;22.31;100.00;99559.27;107231;1248;63274;-83
2023/07/26 17:09:30;;;;;;;8.90;8.00;;;;;;;22.47;100.00;99575.98;107378;1248;59084;-80
2023/07/26 17:11:59;;;;;;;8.60;7.60;;;;;;;22.56;100.00;99573.89;107307;1254;62037;-79
2023/07/26 17:14:28;;;;;;;12.00;10.80;;;;;;;22.53;100.00;99577.30;107440;1245;60863;-84
2023/07/26 17:16:57;;;;;;;10.40;8.60;;;;;;;22.41;100.00;99583.19;107400;1245;69844;-81
2023/07/26 17:19:25;;;;;;;11.80;8.80;;;;;;;22.31;100.00;99584.40;107421;1246;73951;-81
2023/07/26 17:21:54;;;;;;;15.60;13.90;;;;;;;22.27;100.00;99591.88;107160;1247;58941;-81
2023/07/26 17:24:23;;;;;;;10.70;8.10;;;;;;;22.25;100.00;99608.18;107445;1244;59043;-83
2023/07/26 17:26:52;;;;;;;9.40;7.90;;;;;;;22.16;100.00;99604.70;107601;1245;72646;-84
2023/07/26 17:29:20;;;;;;;8.10;6.90;;;;;;;22.08;100.00;99608.81;107732;1248;72751;-79
2023/07/26 17:31:49;;;;;;;9.00;7.30;;;;;;;22.07;100.00;99620.22;107462;1248;61777;-87
2023/07/26 17:34:18;;;;;;;11.60;7.20;;;;;;;22.05;100.00;99633.04;107519;1248;62460;-82
2023/07/26 17:36:48;;;;;;;9.60;8.60;;;;;;;22.02;100.00;99637.80;107446;1254;62637;-83
2023/07/26 17:39:17;;;;;;;12.20;9.30;;;;;;;21.98;100.00;99637.14;107521;1248;60512;-81
